sensor_id;sensor_type;location;lat;lon;timestamp;pressure;altitude;pressure_sealevel;temperature;humidity
40838;BME280;29632;49.168;9.848;2022-11-12T00:00:26;98346.38;;;12.69;46.59
40838;BME280;29632;49.168;9.848;2022-11-12T00:02:52;98349.94;;;12.68;46.29
40838;BME280;29632;49.168;9.848;2022-11-12T00:05:18;98342.44;;;12.63;46.34
40838;BME280;29632;49.168;9.848;2022-11-12T00:07:43;98349.78;;;12.58;46.54
40838;BME280;29632;49.168;9.848;2022-11-12T00:10:09;98351.81;;;12.54;46.67
40838;BME280;29632;49.168;9.848;2022-11-12T00:12:35;98350.16;;;12.53;46.85
40838;BME280;29632;49.168;9.848;2022-11-12T00:15:00;98345.88;;;12.52;46.57
40838;BME280;29632;49.168;9.848;2022-11-12T00:17:26;98339.00;;;12.51;46.44
40838;BME280;29632;49.168;9.848;2022-11-12T00:19:52;98340.88;;;12.49;46.51
40838;BME280;29632;49.168;9.848;2022-11-12T00:22:19;98349.47;;;12.51;46.53
40838;BME280;29632;49.168;9.848;2022-11-12T00:24:44;98340.06;;;12.49;46.58
40838;BME280;29632;49.168;9.848;2022-11-12T00:27:10;98345.41;;;12.47;46.63
40838;BME280;29632;49.168;9.848;2022-11-12T00:29:36;98342.91;;;12.45;46.70
40838;BME280;29632;49.168;9.848;2022-11-12T00:32:05;98353.34;;;12.45;46.50
40838;BME280;29632;49.168;9.848;2022-11-12T00:34:31;98348.25;;;12.44;46.50
40838;BME280;29632;49.168;9.848;2022-11-12T00:36:57;98344.09;;;12.41;46.45
40838;BME280;29632;49.168;9.848;2022-11-12T00:39:23;98350.63;;;12.36;46.78
40838;BME280;29632;49.168;9.848;2022-11-12T00:41:49;98346.56;;;12.32;46.42
40838;BME280;29632;49.168;9.848;2022-11-12T00:44:14;98341.72;;;12.27;46.67
40838;BME280;29632;49.168;9.848;2022-11-12T00:46:40;98338.25;;;12.26;46.85
40838;BME280;29632;49.168;9.848;2022-11-12T00:49:06;98337.66;;;12.23;46.54
40838;BME280;29632;49.168;9.848;2022-11-12T00:51:32;98344.66;;;12.22;46.65
40838;BME280;29632;49.168;9.848;2022-11-12T00:53:57;98337.06;;;12.19;46.46
40838;BME280;29632;49.168;9.848;2022-11-12T00:56:23;98339.66;;;12.19;46.55
40838;BME280;29632;49.168;9.848;2022-11-12T00:58:49;98336.34;;;12.17;46.77
40838;BME280;29632;49.168;9.848;2022-11-12T01:01:15;98333.03;;;12.15;46.58
40838;BME280;29632;49.168;9.848;2022-11-12T01:03:41;98334.91;;;12.13;47.01
40838;BME280;29632;49.168;9.848;2022-11-12T01:06:12;98333.94;;;12.14;46.58
40838;BME280;29632;49.168;9.848;2022-11-12T01:08:38;98334.91;;;12.13;46.87
40838;BME280;29632;49.168;9.848;2022-11-12T01:13:34;98323.16;;;12.07;46.92
40838;BME280;29632;49.168;9.848;2022-11-12T01:16:12;98337.97;;;12.07;46.74
40838;BME280;29632;49.168;9.848;2022-11-12T01:18:38;98339.06;;;12.04;46.63
40838;BME280;29632;49.168;9.848;2022-11-12T01:21:05;98337.50;;;12.02;46.86
40838;BME280;29632;49.168;9.848;2022-11-12T01:23:31;98332.53;;;11.99;47.00
40838;BME280;29632;49.168;9.848;2022-11-12T01:25:58;98340.34;;;11.99;46.97
40838;BME280;29632;49.168;9.848;2022-11-12T01:28:27;98336.88;;;11.98;46.87
40838;BME280;29632;49.168;9.848;2022-11-12T01:30:53;98337.97;;;11.96;46.86
40838;BME280;29632;49.168;9.848;2022-11-12T01:33:19;98338.06;;;11.94;46.64
40838;BME280;29632;49.168;9.848;2022-11-12T01:35:45;98326.06;;;11.92;46.65
40838;BME280;29632;49.168;9.848;2022-11-12T01:38:10;98325.31;;;11.89;46.81
40838;BME280;29632;49.168;9.848;2022-11-12T01:40:36;98326.28;;;11.88;46.71
40838;BME280;29632;49.168;9.848;2022-11-12T01:43:02;98322.09;;;11.86;46.74
40838;BME280;29632;49.168;9.848;2022-11-12T01:45:27;98315.94;;;11.87;46.79
40838;BME280;29632;49.168;9.848;2022-11-12T01:47:53;98318.66;;;11.85;46.92
40838;BME280;29632;49.168;9.848;2022-11-12T01:50:27;98324.13;;;11.82;46.77
40838;BME280;29632;49.168;9.848;2022-11-12T01:53:00;98319.25;;;11.78;46.75
40838;BME280;29632;49.168;9.848;2022-11-12T01:55:29;98314.97;;;11.77;46.86
40838;BME280;29632;49.168;9.848;2022-11-12T01:58:04;98310.94;;;11.73;46.72
40838;BME280;29632;49.168;9.848;2022-11-12T02:00:33;98302.34;;;11.70;46.82
40838;BME280;29632;49.168;9.848;2022-11-12T02:03:00;98306.75;;;11.70;46.91
40838;BME280;29632;49.168;9.848;2022-11-12T02:05:27;98300.94;;;11.66;46.99
40838;BME280;29632;49.168;9.848;2022-11-12T02:07:54;98301.16;;;11.63;46.66
40838;BME280;29632;49.168;9.848;2022-11-12T02:10:21;98300.44;;;11.61;46.96
40838;BME280;29632;49.168;9.848;2022-11-12T02:12:47;98297.22;;;11.58;47.14
40838;BME280;29632;49.168;9.848;2022-11-12T02:15:31;98304.34;;;11.56;46.63
40838;BME280;29632;49.168;9.848;2022-11-12T02:17:57;98306.94;;;11.56;47.03
40838;BME280;29632;49.168;9.848;2022-11-12T02:20:23;98301.84;;;11.54;46.78
40838;BME280;29632;49.168;9.848;2022-11-12T02:22:48;98297.69;;;11.51;46.75
40838;BME280;29632;49.168;9.848;2022-11-12T02:25:20;98301.25;;;11.50;47.06
40838;BME280;29632;49.168;9.848;2022-11-12T02:27:46;98301.34;;;11.49;47.18
40838;BME280;29632;49.168;9.848;2022-11-12T02:30:25;98300.75;;;11.45;46.80
40838;BME280;29632;49.168;9.848;2022-11-12T02:32:55;98297.41;;;11.43;46.89
40838;BME280;29632;49.168;9.848;2022-11-12T02:35:21;98300.94;;;11.42;46.92
40838;BME280;29632;49.168;9.848;2022-11-12T02:37:46;98293.03;;;11.44;46.97
40838;BME280;29632;49.168;9.848;2022-11-12T02:40:12;98295.75;;;11.42;46.91
40838;BME280;29632;49.168;9.848;2022-11-12T02:42:38;98289.91;;;11.39;46.95
40838;BME280;29632;49.168;9.848;2022-11-12T02:45:04;98287.41;;;11.37;46.96
40838;BME280;29632;49.168;9.848;2022-11-12T02:47:29;98291.81;;;11.37;47.18
40838;BME280;29632;49.168;9.848;2022-11-12T02:49:55;98293.69;;;11.34;46.97
40838;BME280;29632;49.168;9.848;2022-11-12T02:52:21;98290.28;;;11.34;47.04
40838;BME280;29632;49.168;9.848;2022-11-12T02:54:46;98290.28;;;11.34;46.90
40838;BME280;29632;49.168;9.848;2022-11-12T02:57:12;98286.81;;;11.33;47.02
40838;BME280;29632;49.168;9.848;2022-11-12T02:59:38;98284.41;;;11.30;46.81
40838;BME280;29632;49.168;9.848;2022-11-12T03:02:03;98290.69;;;11.28;46.92
40838;BME280;29632;49.168;9.848;2022-11-12T03:04:29;98281.19;;;11.27;46.81
40838;BME280;29632;49.168;9.848;2022-11-12T03:06:54;98286.56;;;11.25;46.96
40838;BME280;29632;49.168;9.848;2022-11-12T03:09:20;98282.16;;;11.26;47.12
40838;BME280;29632;49.168;9.848;2022-11-12T03:11:46;98280.47;;;11.25;46.97
40838;BME280;29632;49.168;9.848;2022-11-12T03:14:11;98282.97;;;11.26;46.97
40838;BME280;29632;49.168;9.848;2022-11-12T03:16:37;98293.31;;;11.28;46.72
40838;BME280;29632;49.168;9.848;2022-11-12T03:19:02;98293.19;;;11.29;46.78
40838;BME280;29632;49.168;9.848;2022-11-12T03:21:28;98293.19;;;11.29;46.84
40838;BME280;29632;49.168;9.848;2022-11-12T03:23:54;98295.69;;;11.31;46.98
40838;BME280;29632;49.168;9.848;2022-11-12T03:26:19;98293.91;;;11.31;46.87
40838;BME280;29632;49.168;9.848;2022-11-12T03:28:45;98297.94;;;11.36;46.87
40838;BME280;29632;49.168;9.848;2022-11-12T03:31:10;98297.03;;;11.37;46.89
40838;BME280;29632;49.168;9.848;2022-11-12T03:33:36;98296.09;;;11.38;46.90
40838;BME280;29632;49.168;9.848;2022-11-12T03:36:03;98294.19;;;11.40;46.86
40838;BME280;29632;49.168;9.848;2022-11-12T03:38:29;98304.53;;;11.41;46.78
40838;BME280;29632;49.168;9.848;2022-11-12T03:40:54;98298.44;;;11.41;47.19
40838;BME280;29632;49.168;9.848;2022-11-12T03:43:20;98297.53;;;11.42;47.02
40838;BME280;29632;49.168;9.848;2022-11-12T03:45:46;98294.91;;;11.42;46.81
40838;BME280;29632;49.168;9.848;2022-11-12T03:48:12;98295.84;;;11.41;46.83
40838;BME280;29632;49.168;9.848;2022-11-12T03:50:37;98300.13;;;11.42;47.05
40838;BME280;29632;49.168;9.848;2022-11-12T03:53:03;98301.06;;;11.41;47.11
40838;BME280;29632;49.168;9.848;2022-11-12T03:55:29;98291.59;;;11.40;46.97
40838;BME280;29632;49.168;9.848;2022-11-12T03:57:55;98293.25;;;11.41;46.87
40838;BME280;29632;49.168;9.848;2022-11-12T04:00:22;98298.44;;;11.41;46.81
40838;BME280;29632;49.168;9.848;2022-11-12T04:02:48;98295.03;;;11.40;46.84
40838;BME280;29632;49.168;9.848;2022-11-12T04:05:14;98298.81;;;11.36;46.85
40838;BME280;29632;49.168;9.848;2022-11-12T04:07:59;98303.75;;;11.28;47.03
40838;BME280;29632;49.168;9.848;2022-11-12T04:10:44;98302.31;;;11.24;47.43
40838;BME280;29632;49.168;9.848;2022-11-12T04:13:10;98307.63;;;11.22;47.25
40838;BME280;29632;49.168;9.848;2022-11-12T04:16:01;98309.38;;;11.22;47.27
40838;BME280;29632;49.168;9.848;2022-11-12T04:18:47;98298.94;;;11.22;47.13
40838;BME280;29632;49.168;9.848;2022-11-12T04:21:36;98301.69;;;11.20;47.27
40838;BME280;29632;49.168;9.848;2022-11-12T04:24:26;98288.53;;;11.22;47.08
40838;BME280;29632;49.168;9.848;2022-11-12T04:27:20;98305.63;;;11.26;47.16
40838;BME280;29632;49.168;9.848;2022-11-12T04:29:46;98295.19;;;11.26;47.32
40838;BME280;29632;49.168;9.848;2022-11-12T04:32:33;98308.25;;;11.26;46.74
40838;BME280;29632;49.168;9.848;2022-11-12T04:35:00;98303.03;;;11.26;47.17
40838;BME280;29632;49.168;9.848;2022-11-12T04:37:27;98300.41;;;11.26;47.38
40838;BME280;29632;49.168;9.848;2022-11-12T04:39:54;98308.03;;;11.29;47.00
40838;BME280;29632;49.168;9.848;2022-11-12T04:42:19;98313.09;;;11.30;47.35
40838;BME280;29632;49.168;9.848;2022-11-12T04:45:09;98313.09;;;11.30;47.19
40838;BME280;29632;49.168;9.848;2022-11-12T04:47:40;98309.56;;;11.31;47.12
40838;BME280;29632;49.168;9.848;2022-11-12T04:50:14;98306.84;;;11.33;47.17
40838;BME280;29632;49.168;9.848;2022-11-12T04:52:40;98303.31;;;11.34;47.39
40838;BME280;29632;49.168;9.848;2022-11-12T04:55:06;98297.13;;;11.35;47.09
40838;BME280;29632;49.168;9.848;2022-11-12T04:57:31;98300.56;;;11.36;47.14
40838;BME280;29632;49.168;9.848;2022-11-12T04:59:57;98304.03;;;11.36;47.10
40838;BME280;29632;49.168;9.848;2022-11-12T05:02:23;98311.75;;;11.38;47.22
40838;BME280;29632;49.168;9.848;2022-11-12T05:04:48;98301.16;;;11.39;47.33
40838;BME280;29632;49.168;9.848;2022-11-12T05:07:15;98309.75;;;11.41;47.40
40838;BME280;29632;49.168;9.848;2022-11-12T05:09:41;98312.25;;;11.43;47.06
40838;BME280;29632;49.168;9.848;2022-11-12T05:12:07;98304.28;;;11.44;47.26
40838;BME280;29632;49.168;9.848;2022-11-12T05:14:33;98299.06;;;11.44;47.17
40838;BME280;29632;49.168;9.848;2022-11-12T05:16:58;98297.53;;;11.42;46.91
40838;BME280;29632;49.168;9.848;2022-11-12T05:19:24;98304.53;;;11.41;47.49
40838;BME280;29632;49.168;9.848;2022-11-12T05:21:50;98303.56;;;11.42;47.22
40838;BME280;29632;49.168;9.848;2022-11-12T05:24:32;98296.69;;;11.41;46.91
40838;BME280;29632;49.168;9.848;2022-11-12T05:26:58;98293.25;;;11.41;47.09
40838;BME280;29632;49.168;9.848;2022-11-12T05:29:24;98303.66;;;11.41;47.31
40838;BME280;29632;49.168;9.848;2022-11-12T05:31:49;98302.03;;;11.40;47.05
40838;BME280;29632;49.168;9.848;2022-11-12T05:34:15;98301.06;;;11.41;46.99
40838;BME280;29632;49.168;9.848;2022-11-12T05:36:41;98302.84;;;11.40;47.25
40838;BME280;29632;49.168;9.848;2022-11-12T05:39:06;98302.75;;;11.42;47.24
40838;BME280;29632;49.168;9.848;2022-11-12T05:41:32;98309.50;;;11.44;47.15
40838;BME280;29632;49.168;9.848;2022-11-12T05:43:57;98309.50;;;11.44;47.37
40838;BME280;29632;49.168;9.848;2022-11-12T05:46:23;98302.53;;;11.45;47.26
40838;BME280;29632;49.168;9.848;2022-11-12T05:48:49;98310.47;;;11.43;47.28
40838;BME280;29632;49.168;9.848;2022-11-12T05:51:14;98315.69;;;11.43;47.32
40838;BME280;29632;49.168;9.848;2022-11-12T05:53:41;98306.28;;;11.41;47.33
40838;BME280;29632;49.168;9.848;2022-11-12T05:56:07;98303.66;;;11.41;47.13
40838;BME280;29632;49.168;9.848;2022-11-12T05:58:34;98301.91;;;11.41;47.43
40838;BME280;29632;49.168;9.848;2022-11-12T06:01:00;98300.25;;;11.40;47.36
40838;BME280;29632;49.168;9.848;2022-11-12T06:03:26;98305.47;;;11.40;47.06
40838;BME280;29632;49.168;9.848;2022-11-12T06:05:52;98305.47;;;11.40;46.90
40838;BME280;29632;49.168;9.848;2022-11-12T06:08:17;98312.56;;;11.38;47.25
40838;BME280;29632;49.168;9.848;2022-11-12T06:10:50;98309.13;;;11.38;46.97
40838;BME280;29632;49.168;9.848;2022-11-12T06:13:16;98308.28;;;11.37;46.97
40838;BME280;29632;49.168;9.848;2022-11-12T06:15:42;98306.63;;;11.36;47.02
40838;BME280;29632;49.168;9.848;2022-11-12T06:18:08;98318.09;;;11.33;47.14
40838;BME280;29632;49.168;9.848;2022-11-12T06:20:34;98311.25;;;11.32;47.01
40838;BME280;29632;49.168;9.848;2022-11-12T06:22:59;98315.59;;;11.32;47.09
40838;BME280;29632;49.168;9.848;2022-11-12T06:25:25;98312.28;;;11.30;46.97
40838;BME280;29632;49.168;9.848;2022-11-12T06:27:51;98314.06;;;11.29;47.18
40838;BME280;29632;49.168;9.848;2022-11-12T06:30:17;98317.72;;;11.27;47.20
40838;BME280;29632;49.168;9.848;2022-11-12T06:32:49;98320.31;;;11.27;47.27
40838;BME280;29632;49.168;9.848;2022-11-12T06:35:16;98310.97;;;11.24;47.40
40838;BME280;29632;49.168;9.848;2022-11-12T06:37:44;98311.06;;;11.23;47.23
40838;BME280;29632;49.168;9.848;2022-11-12T06:40:10;98307.63;;;11.22;47.21
40838;BME280;29632;49.168;9.848;2022-11-12T06:42:36;98310.34;;;11.21;47.44
40838;BME280;29632;49.168;9.848;2022-11-12T06:45:02;98305.34;;;11.18;47.29
40838;BME280;29632;49.168;9.848;2022-11-12T06:47:28;98307.03;;;11.19;47.23
40838;BME280;29632;49.168;9.848;2022-11-12T06:49:53;98314.84;;;11.19;47.45
40838;BME280;29632;49.168;9.848;2022-11-12T06:52:19;98320.78;;;11.21;47.51
40838;BME280;29632;49.168;9.848;2022-11-12T06:54:44;98316.38;;;11.21;47.13
40838;BME280;29632;49.168;9.848;2022-11-12T06:57:10;98318.88;;;11.23;47.26
40838;BME280;29632;49.168;9.848;2022-11-12T06:59:36;98304.81;;;11.25;47.13
40838;BME280;29632;49.168;9.848;2022-11-12T07:02:01;98303.03;;;11.26;47.04
40838;BME280;29632;49.168;9.848;2022-11-12T07:04:27;98305.63;;;11.26;47.26
40838;BME280;29632;49.168;9.848;2022-11-12T07:06:53;98312.63;;;11.25;47.38
40838;BME280;29632;49.168;9.848;2022-11-12T07:09:18;98313.34;;;11.27;47.14
40838;BME280;29632;49.168;9.848;2022-11-12T07:11:44;98304.66;;;11.27;46.96
40838;BME280;29632;49.168;9.848;2022-11-12T07:14:10;98301.75;;;11.31;47.20
40838;BME280;29632;49.168;9.848;2022-11-12T07:16:35;98303.31;;;11.34;47.28
40838;BME280;29632;49.168;9.848;2022-11-12T07:19:01;98302.13;;;11.38;47.13
40838;BME280;29632;49.168;9.848;2022-11-12T07:21:27;98304.63;;;11.40;46.83
40838;BME280;29632;49.168;9.848;2022-11-12T07:23:53;98312.25;;;11.43;47.11
40838;BME280;29632;49.168;9.848;2022-11-12T07:26:21;98314.72;;;11.44;47.10
40838;BME280;29632;49.168;9.848;2022-11-12T07:28:48;98311.19;;;11.45;46.93
40838;BME280;29632;49.168;9.848;2022-11-12T07:31:16;98313.56;;;11.48;47.06
40838;BME280;29632;49.168;9.848;2022-11-12T07:33:42;98308.94;;;11.52;47.46
40838;BME280;29632;49.168;9.848;2022-11-12T07:36:13;98317.28;;;11.57;47.15
40838;BME280;29632;49.168;9.848;2022-11-12T07:38:39;98322.28;;;11.60;47.10
40838;BME280;29632;49.168;9.848;2022-11-12T07:41:09;98320.28;;;11.64;46.89
40838;BME280;29632;49.168;9.848;2022-11-12T07:43:36;98315.06;;;11.64;47.12
40838;BME280;29632;49.168;9.848;2022-11-12T07:46:07;98322.63;;;11.67;47.07
40838;BME280;29632;49.168;9.848;2022-11-12T07:48:33;98311.03;;;11.71;47.08
40838;BME280;29632;49.168;9.848;2022-11-12T07:53:39;98316.66;;;11.89;46.80
40838;BME280;29632;49.168;9.848;2022-11-12T07:56:05;98310.88;;;11.97;46.71
40838;BME280;29632;49.168;9.848;2022-11-12T07:58:32;98309.13;;;12.08;46.60
40838;BME280;29632;49.168;9.848;2022-11-12T08:03:50;98301.22;;;12.44;46.46
40838;BME280;29632;49.168;9.848;2022-11-12T08:06:15;98295.50;;;12.73;46.39
40838;BME280;29632;49.168;9.848;2022-11-12T08:08:41;98300.66;;;13.07;45.55
40838;BME280;29632;49.168;9.848;2022-11-12T08:11:07;98303.94;;;13.43;45.24
40838;BME280;29632;49.168;9.848;2022-11-12T08:13:33;98300.25;;;13.66;45.17
40838;BME280;29632;49.168;9.848;2022-11-12T08:15:58;98315.03;;;13.88;44.90
40838;BME280;29632;49.168;9.848;2022-11-12T08:18:25;98313.09;;;14.11;44.77
40838;BME280;29632;49.168;9.848;2022-11-12T08:20:51;98309.91;;;14.29;44.51
40838;BME280;29632;49.168;9.848;2022-11-12T08:23:16;98317.34;;;14.54;44.35
40838;BME280;29632;49.168;9.848;2022-11-12T08:25:42;98313.56;;;14.78;44.19
40838;BME280;29632;49.168;9.848;2022-11-12T08:28:08;98309.66;;;15.03;44.07
40838;BME280;29632;49.168;9.848;2022-11-12T08:30:33;98307.22;;;15.31;43.59
40838;BME280;29632;49.168;9.848;2022-11-12T08:33:04;98297.97;;;15.56;43.60
40838;BME280;29632;49.168;9.848;2022-11-12T08:35:31;98296.22;;;15.76;43.43
40838;BME280;29632;49.168;9.848;2022-11-12T08:38:04;98291.47;;;15.90;43.23
40838;BME280;29632;49.168;9.848;2022-11-12T08:40:31;98292.16;;;15.92;43.57
40838;BME280;29632;49.168;9.848;2022-11-12T08:43:05;98304.19;;;15.94;43.37
40838;BME280;29632;49.168;9.848;2022-11-12T08:45:32;98299.22;;;15.91;43.87
40838;BME280;29632;49.168;9.848;2022-11-12T08:47:59;98298.81;;;15.86;43.98
40838;BME280;29632;49.168;9.848;2022-11-12T08:50:25;98301.03;;;15.81;44.33
40838;BME280;29632;49.168;9.848;2022-11-12T08:52:51;98293.44;;;15.78;44.38
40838;BME280;29632;49.168;9.848;2022-11-12T08:55:17;98299.78;;;15.75;44.79
40838;BME280;29632;49.168;9.848;2022-11-12T08:57:43;98303.94;;;15.78;44.81
40838;BME280;29632;49.168;9.848;2022-11-12T09:00:10;98297.97;;;15.85;44.85
40838;BME280;29632;49.168;9.848;2022-11-12T09:02:36;98295.47;;;16.03;44.84
40838;BME280;29632;49.168;9.848;2022-11-12T09:05:03;98298.56;;;16.36;44.47
40838;BME280;29632;49.168;9.848;2022-11-12T09:07:29;98301.63;;;16.69;44.17
40838;BME280;29632;49.168;9.848;2022-11-12T09:09:54;98297.19;;;16.97;43.95
40838;BME280;29632;49.168;9.848;2022-11-12T09:12:20;98294.28;;;17.18;43.35
40838;BME280;29632;49.168;9.848;2022-11-12T09:14:46;98296.13;;;17.36;43.37
40838;BME280;29632;49.168;9.848;2022-11-12T09:17:11;98297.03;;;17.45;43.36
40838;BME280;29632;49.168;9.848;2022-11-12T09:19:37;98292.78;;;17.52;43.11
40838;BME280;29632;49.168;9.848;2022-11-12T09:22:03;98294.31;;;17.54;43.16
40838;BME280;29632;49.168;9.848;2022-11-12T09:24:28;98290.84;;;17.54;43.41
40838;BME280;29632;49.168;9.848;2022-11-12T09:26:54;98294.13;;;17.56;43.69
40838;BME280;29632;49.168;9.848;2022-11-12T09:29:20;98294.13;;;17.56;43.54
40838;BME280;29632;49.168;9.848;2022-11-12T09:31:46;98297.63;;;17.57;43.84
40838;BME280;29632;49.168;9.848;2022-11-12T09:34:11;98293.19;;;17.57;43.94
40838;BME280;29632;49.168;9.848;2022-11-12T09:36:37;98297.00;;;17.63;44.17
40838;BME280;29632;49.168;9.848;2022-11-12T09:39:03;98301.91;;;17.76;44.12
40838;BME280;29632;49.168;9.848;2022-11-12T09:41:35;98292.53;;;17.99;43.66
40838;BME280;29632;49.168;9.848;2022-11-12T09:44:09;98295.13;;;18.17;43.70
40838;BME280;29632;49.168;9.848;2022-11-12T09:46:46;98301.47;;;18.33;43.83
40838;BME280;29632;49.168;9.848;2022-11-12T09:49:27;98294.97;;;18.45;43.59
40838;BME280;29632;49.168;9.848;2022-11-12T09:52:25;98293.06;;;18.63;43.84
40838;BME280;29632;49.168;9.848;2022-11-12T09:55:07;98296.50;;;18.82;43.97
40838;BME280;29632;49.168;9.848;2022-11-12T09:57:37;98285.81;;;19.00;43.45
40838;BME280;29632;49.168;9.848;2022-11-12T10:00:18;98282.34;;;19.08;43.38
40838;BME280;29632;49.168;9.848;2022-11-12T10:03:06;98286.66;;;19.09;43.04
40838;BME280;29632;49.168;9.848;2022-11-12T10:16:40;98281.56;;;18.64;44.23
40838;BME280;29632;49.168;9.848;2022-11-12T10:21:57;98274.69;;;18.45;44.54
40838;BME280;29632;49.168;9.848;2022-11-12T10:24:25;98276.13;;;18.40;44.83
40838;BME280;29632;49.168;9.848;2022-11-12T10:26:55;98280.38;;;18.33;44.85
40838;BME280;29632;49.168;9.848;2022-11-12T10:32:10;98280.16;;;18.18;45.07
40838;BME280;29632;49.168;9.848;2022-11-12T10:34:37;98273.50;;;18.14;45.17
40838;BME280;29632;49.168;9.848;2022-11-12T10:37:06;98274.53;;;18.13;45.33
40838;BME280;29632;49.168;9.848;2022-11-12T10:39:41;98272.03;;;18.11;45.19
40838;BME280;29632;49.168;9.848;2022-11-12T10:42:09;98265.94;;;18.10;45.37
40838;BME280;29632;49.168;9.848;2022-11-12T10:44:36;98266.09;;;18.09;45.38
40838;BME280;29632;49.168;9.848;2022-11-12T10:47:29;98263.47;;;18.09;45.38
40838;BME280;29632;49.168;9.848;2022-11-12T10:52:27;98273.00;;;18.10;45.58
40838;BME280;29632;49.168;9.848;2022-11-12T10:55:16;98265.31;;;18.17;45.31
40838;BME280;29632;49.168;9.848;2022-11-12T10:57:42;98257.75;;;18.22;45.18
40838;BME280;29632;49.168;9.848;2022-11-12T11:02:37;98256.44;;;18.26;45.02
40838;BME280;29632;49.168;9.848;2022-11-12T11:11:23;98250.03;;;18.28;45.22
40838;BME280;29632;49.168;9.848;2022-11-12T11:13:50;98249.75;;;18.32;45.38
40838;BME280;29632;49.168;9.848;2022-11-12T11:16:27;98257.16;;;18.36;45.24
40838;BME280;29632;49.168;9.848;2022-11-12T11:18:59;98252.41;;;18.40;45.18
40838;BME280;29632;49.168;9.848;2022-11-12T11:24:46;98242.91;;;18.47;45.14
40838;BME280;29632;49.168;9.848;2022-11-12T11:27:37;98246.84;;;18.51;45.09
40838;BME280;29632;49.168;9.848;2022-11-12T11:30:19;98241.28;;;18.54;44.94
40838;BME280;29632;49.168;9.848;2022-11-12T11:38:42;98243.44;;;18.67;45.16
40838;BME280;29632;49.168;9.848;2022-11-12T11:44:22;98239.50;;;18.71;45.38
40838;BME280;29632;49.168;9.848;2022-11-12T11:47:17;98236.53;;;18.74;45.18
40838;BME280;29632;49.168;9.848;2022-11-12T11:50:00;98230.28;;;18.75;45.27
40838;BME280;29632;49.168;9.848;2022-11-12T11:52:52;98235.56;;;18.75;45.18
40838;BME280;29632;49.168;9.848;2022-11-12T12:00:47;98233.81;;;18.84;45.27
40838;BME280;29632;49.168;9.848;2022-11-12T12:03:23;98233.16;;;18.90;45.17
40838;BME280;29632;49.168;9.848;2022-11-12T12:08:58;98227.41;;;19.03;45.21
40838;BME280;29632;49.168;9.848;2022-11-12T12:11:32;98226.75;;;19.09;44.92
40838;BME280;29632;49.168;9.848;2022-11-12T12:14:16;98215.56;;;19.15;45.04
40838;BME280;29632;49.168;9.848;2022-11-12T12:22:14;98213.41;;;19.27;45.08
40838;BME280;29632;49.168;9.848;2022-11-12T12:24:46;98207.94;;;19.29;45.05
40838;BME280;29632;49.168;9.848;2022-11-12T12:27:26;98205.31;;;19.29;45.27
40838;BME280;29632;49.168;9.848;2022-11-12T12:29:57;98200.19;;;19.27;45.20
40838;BME280;29632;49.168;9.848;2022-11-12T12:32:32;98203.53;;;19.29;45.24
40838;BME280;29632;49.168;9.848;2022-11-12T12:38:54;98202.00;;;19.27;45.14
40838;BME280;29632;49.168;9.848;2022-11-12T12:41:41;98192.47;;;19.26;45.29
40838;BME280;29632;49.168;9.848;2022-11-12T12:44:10;98198.41;;;19.28;45.09
40838;BME280;29632;49.168;9.848;2022-11-12T12:46:54;98190.47;;;19.28;45.33
40838;BME280;29632;49.168;9.848;2022-11-12T12:49:27;98186.97;;;19.27;45.40
40838;BME280;29632;49.168;9.848;2022-11-12T12:51:53;98182.56;;;19.28;45.17
40838;BME280;29632;49.168;9.848;2022-11-12T12:57:02;98177.28;;;19.28;45.27
40838;BME280;29632;49.168;9.848;2022-11-12T12:59:28;98173.97;;;19.26;45.55
40838;BME280;29632;49.168;9.848;2022-11-12T13:01:59;98169.50;;;19.26;45.23
40838;BME280;29632;49.168;9.848;2022-11-12T13:04:56;98167.53;;;19.28;45.15
40838;BME280;29632;49.168;9.848;2022-11-12T13:07:41;98165.38;;;19.32;45.18
40838;BME280;29632;49.168;9.848;2022-11-12T13:10:33;98164.88;;;19.36;45.12
40838;BME280;29632;49.168;9.848;2022-11-12T13:13:22;98163.56;;;19.40;45.11
40838;BME280;29632;49.168;9.848;2022-11-12T13:21:11;98165.34;;;19.56;45.00
40838;BME280;29632;49.168;9.848;2022-11-12T13:23:57;98167.97;;;19.65;45.16
40838;BME280;29632;49.168;9.848;2022-11-12T13:26:55;98158.22;;;19.73;44.99
40838;BME280;29632;49.168;9.848;2022-11-12T13:29:23;98152.44;;;19.78;45.15
40838;BME280;29632;49.168;9.848;2022-11-12T13:31:49;98156.41;;;19.82;44.79
40838;BME280;29632;49.168;9.848;2022-11-12T13:34:34;98163.16;;;19.85;44.85
40838;BME280;29632;49.168;9.848;2022-11-12T13:37:01;98163.00;;;19.86;45.04
40838;BME280;29632;49.168;9.848;2022-11-12T13:39:30;98162.19;;;19.86;44.85
40838;BME280;29632;49.168;9.848;2022-11-12T13:41:57;98164.19;;;19.84;44.85
40838;BME280;29632;49.168;9.848;2022-11-12T13:44:41;98160.88;;;19.82;44.77
40838;BME280;29632;49.168;9.848;2022-11-12T13:47:14;98164.50;;;19.80;45.12
40838;BME280;29632;49.168;9.848;2022-11-12T13:49:41;98161.88;;;19.80;45.09
40838;BME280;29632;49.168;9.848;2022-11-12T13:52:13;98164.69;;;19.79;44.91
40838;BME280;29632;49.168;9.848;2022-11-12T13:54:40;98163.84;;;19.78;44.91
40838;BME280;29632;49.168;9.848;2022-11-12T13:59:45;98159.88;;;19.74;45.12
40838;BME280;29632;49.168;9.848;2022-11-12T14:02:22;98158.56;;;19.70;45.01
40838;BME280;29632;49.168;9.848;2022-11-12T14:04:50;98161.53;;;19.67;45.26
40838;BME280;29632;49.168;9.848;2022-11-12T14:07:38;98153.28;;;19.62;45.08
40838;BME280;29632;49.168;9.848;2022-11-12T14:15:30;98165.19;;;19.50;45.15
40838;BME280;29632;49.168;9.848;2022-11-12T14:20:43;98170.00;;;19.38;45.22
40838;BME280;29632;49.168;9.848;2022-11-12T14:23:14;98164.38;;;19.33;45.33
40838;BME280;29632;49.168;9.848;2022-11-12T14:25:51;98162.25;;;19.28;45.51
40838;BME280;29632;49.168;9.848;2022-11-12T14:28:33;98158.28;;;19.24;45.50
40838;BME280;29632;49.168;9.848;2022-11-12T14:31:00;98160.44;;;19.20;45.44
40838;BME280;29632;49.168;9.848;2022-11-12T14:33:27;98152.84;;;19.17;45.32
40838;BME280;29632;49.168;9.848;2022-11-12T14:36:01;98151.50;;;19.13;45.49